sensor_id;sensor_type;location;lat;lon;timestamp;temperature;humidity
18189;DHT22;9219;50.396;8.546;2022-12-18T00:00:39;-2.90;99.90
18189;DHT22;9219;50.396;8.546;2022-12-18T00:03:07;-2.90;99.90
18189;DHT22;9219;50.396;8.546;2022-12-18T00:05:35;-2.90;99.90
18189;DHT22;9219;50.396;8.546;2022-12-18T00:08:03;-2.90;99.90
18189;DHT22;9219;50.396;8.546;2022-12-18T00:10:35;-2.90;99.90
18189;DHT22;9219;50.396;8.546;2022-12-18T00:18:11;-2.60;99.90
18189;DHT22;9219;50.396;8.546;2022-12-18T00:20:44;-2.60;99.90
18189;DHT22;9219;50.396;8.546;2022-12-18T00:23:12;-2.60;99.90
18189;DHT22;9219;50.396;8.546;2022-12-18T00:25:40;-2.60;99.90
18189;DHT22;9219;50.396;8.546;2022-12-18T00:28:08;-2.80;99.90
18189;DHT22;9219;50.396;8.546;2022-12-18T00:30:35;-2.80;99.90
18189;DHT22;9219;50.396;8.546;2022-12-18T00:33:04;-2.70;99.90
18189;DHT22;9219;50.396;8.546;2022-12-18T00:40:36;-2.80;99.90
18189;DHT22;9219;50.396;8.546;2022-12-18T00:43:06;-3.00;99.90
18189;DHT22;9219;50.396;8.546;2022-12-18T00:45:33;-3.00;99.90
18189;DHT22;9219;50.396;8.546;2022-12-18T00:48:01;-2.90;99.90
18189;DHT22;9219;50.396;8.546;2022-12-18T00:50:29;-2.80;99.90
18189;DHT22;9219;50.396;8.546;2022-12-18T00:52:57;-2.90;99.90
18189;DHT22;9219;50.396;8.546;2022-12-18T00:55:25;-3.00;99.90
18189;DHT22;9219;50.396;8.546;2022-12-18T01:16:49;-3.10;99.90
18189;DHT22;9219;50.396;8.546;2022-12-18T01:19:22;-3.00;99.90
18189;DHT22;9219;50.396;8.546;2022-12-18T01:21:50;-3.20;99.90
18189;DHT22;9219;50.396;8.546;2022-12-18T01:24:18;-3.20;99.90
18189;DHT22;9219;50.396;8.546;2022-12-18T01:26:49;-3.30;99.90
18189;DHT22;9219;50.396;8.546;2022-12-18T01:29:18;-3.20;99.90
18189;DHT22;9219;50.396;8.546;2022-12-18T01:31:46;-3.20;99.90
18189;DHT22;9219;50.396;8.546;2022-12-18T01:36:54;-3.30;99.90
18189;DHT22;9219;50.396;8.546;2022-12-18T01:39:27;-3.30;99.90
18189;DHT22;9219;50.396;8.546;2022-12-18T01:41:55;-3.30;99.90
18189;DHT22;9219;50.396;8.546;2022-12-18T01:44:54;-3.30;99.90
18189;DHT22;9219;50.396;8.546;2022-12-18T01:47:26;-3.30;99.90
18189;DHT22;9219;50.396;8.546;2022-12-18T01:50:02;-3.40;99.90
18189;DHT22;9219;50.396;8.546;2022-12-18T01:52:33;-3.50;99.90
18189;DHT22;9219;50.396;8.546;2022-12-18T01:55:06;-3.60;99.90
18189;DHT22;9219;50.396;8.546;2022-12-18T02:03:11;-3.60;99.90
18189;DHT22;9219;50.396;8.546;2022-12-18T02:05:54;-3.80;99.90
18189;DHT22;9219;50.396;8.546;2022-12-18T02:08:32;-3.90;99.90
18189;DHT22;9219;50.396;8.546;2022-12-18T02:11:33;-3.90;99.90
18189;DHT22;9219;50.396;8.546;2022-12-18T02:14:18;-3.90;99.90
18189;DHT22;9219;50.396;8.546;2022-12-18T02:17:11;-4.00;99.90
18189;DHT22;9219;50.396;8.546;2022-12-18T02:19:51;-4.00;99.90
18189;DHT22;9219;50.396;8.546;2022-12-18T02:22:29;-3.90;99.90
18189;DHT22;9219;50.396;8.546;2022-12-18T02:25:06;-3.90;99.90
18189;DHT22;9219;50.396;8.546;2022-12-18T02:27:50;-3.90;99.90
18189;DHT22;9219;50.396;8.546;2022-12-18T02:30:35;-3.70;99.90
18189;DHT22;9219;50.396;8.546;2022-12-18T02:33:08;-3.60;99.90
18189;DHT22;9219;50.396;8.546;2022-12-18T02:35:44;-3.70;99.90
18189;DHT22;9219;50.396;8.546;2022-12-18T02:43:47;-3.70;99.90
18189;DHT22;9219;50.396;8.546;2022-12-18T02:46:31;-3.60;99.90
18189;DHT22;9219;50.396;8.546;2022-12-18T02:49:10;-3.60;99.90
18189;DHT22;9219;50.396;8.546;2022-12-18T02:51:47;-3.60;99.90
18189;DHT22;9219;50.396;8.546;2022-12-18T02:54:24;-3.60;99.90
18189;DHT22;9219;50.396;8.546;2022-12-18T02:56:57;-3.70;99.90
18189;DHT22;9219;50.396;8.546;2022-12-18T02:59:34;-3.80;99.90
18189;DHT22;9219;50.396;8.546;2022-12-18T03:02:10;-3.80;99.90
18189;DHT22;9219;50.396;8.546;2022-12-18T03:09:57;-3.80;99.90
18189;DHT22;9219;50.396;8.546;2022-12-18T03:12:32;-3.60;99.90
18189;DHT22;9219;50.396;8.546;2022-12-18T03:15:21;-3.70;99.90
18189;DHT22;9219;50.396;8.546;2022-12-18T03:17:54;-3.70;99.90
18189;DHT22;9219;50.396;8.546;2022-12-18T03:20:25;-3.60;99.90
18189;DHT22;9219;50.396;8.546;2022-12-18T03:22:59;-3.60;99.90
18189;DHT22;9219;50.396;8.546;2022-12-18T03:25:39;-3.80;99.90
18189;DHT22;9219;50.396;8.546;2022-12-18T03:28:12;-3.70;99.90
18189;DHT22;9219;50.396;8.546;2022-12-18T03:33:53;-3.90;99.90
18189;DHT22;9219;50.396;8.546;2022-12-18T03:36:22;-4.00;99.90
18189;DHT22;9219;50.396;8.546;2022-12-18T03:38:51;-3.80;99.90
18189;DHT22;9219;50.396;8.546;2022-12-18T03:41:28;-3.80;99.90
18189;DHT22;9219;50.396;8.546;2022-12-18T03:44:03;-3.70;99.90
18189;DHT22;9219;50.396;8.546;2022-12-18T03:46:43;-3.60;99.90
18189;DHT22;9219;50.396;8.546;2022-12-18T03:49:24;-3.70;99.90
18189;DHT22;9219;50.396;8.546;2022-12-18T03:51:57;-3.70;99.90
18189;DHT22;9219;50.396;8.546;2022-12-18T03:57:34;-3.70;99.90
18189;DHT22;9219;50.396;8.546;2022-12-18T04:00:07;-3.80;99.90
18189;DHT22;9219;50.396;8.546;2022-12-18T04:02:36;-3.80;99.90
18189;DHT22;9219;50.396;8.546;2022-12-18T04:05:07;-3.60;99.90
18189;DHT22;9219;50.396;8.546;2022-12-18T04:07:38;-3.50;99.90
18189;DHT22;9219;50.396;8.546;2022-12-18T04:10:09;-3.50;99.90
18189;DHT22;9219;50.396;8.546;2022-12-18T04:12:40;-3.50;99.90
18189;DHT22;9219;50.396;8.546;2022-12-18T04:30:41;-3.60;99.90
18189;DHT22;9219;50.396;8.546;2022-12-18T04:33:10;-3.90;99.90
18189;DHT22;9219;50.396;8.546;2022-12-18T04:35:37;-3.80;99.90
18189;DHT22;9219;50.396;8.546;2022-12-18T04:38:05;-3.80;99.90
18189;DHT22;9219;50.396;8.546;2022-12-18T04:40:37;-3.90;99.90
18189;DHT22;9219;50.396;8.546;2022-12-18T04:43:07;-3.90;99.90
18189;DHT22;9219;50.396;8.546;2022-12-18T04:45:35;-4.00;99.90
18189;DHT22;9219;50.396;8.546;2022-12-18T04:48:27;-4.00;99.90
18189;DHT22;9219;50.396;8.546;2022-12-18T04:50:55;-4.00;99.90
18189;DHT22;9219;50.396;8.546;2022-12-18T04:53:22;-4.00;99.90
18189;DHT22;9219;50.396;8.546;2022-12-18T04:56:04;-4.00;99.90
18189;DHT22;9219;50.396;8.546;2022-12-18T04:58:32;-4.00;99.90
18189;DHT22;9219;50.396;8.546;2022-12-18T05:01:00;-4.10;99.90
18189;DHT22;9219;50.396;8.546;2022-12-18T05:03:29;-4.10;99.90
18189;DHT22;9219;50.396;8.546;2022-12-18T05:05:57;-4.10;99.90
18189;DHT22;9219;50.396;8.546;2022-12-18T05:13:29;-4.10;99.90
18189;DHT22;9219;50.396;8.546;2022-12-18T05:15:57;-4.20;99.90
18189;DHT22;9219;50.396;8.546;2022-12-18T05:18:25;-4.20;99.90
18189;DHT22;9219;50.396;8.546;2022-12-18T05:20:56;-4.10;99.90
18189;DHT22;9219;50.396;8.546;2022-12-18T05:23:24;-4.10;99.90
18189;DHT22;9219;50.396;8.546;2022-12-18T05:25:55;-4.10;99.90
18189;DHT22;9219;50.396;8.546;2022-12-18T05:28:26;-4.00;99.90
18189;DHT22;9219;50.396;8.546;2022-12-18T05:33:42;-4.00;99.90
18189;DHT22;9219;50.396;8.546;2022-12-18T05:36:10;-4.00;99.90
18189;DHT22;9219;50.396;8.546;2022-12-18T05:38:38;-4.10;99.90
18189;DHT22;9219;50.396;8.546;2022-12-18T05:41:09;-4.00;99.90
18189;DHT22;9219;50.396;8.546;2022-12-18T05:43:37;-4.00;99.90
18189;DHT22;9219;50.396;8.546;2022-12-18T05:46:07;-4.00;99.90
18189;DHT22;9219;50.396;8.546;2022-12-18T05:48:35;-3.90;99.90
18189;DHT22;9219;50.396;8.546;2022-12-18T05:51:05;-3.90;99.90
18189;DHT22;9219;50.396;8.546;2022-12-18T05:57:54;-4.00;99.90
18189;DHT22;9219;50.396;8.546;2022-12-18T06:00:23;-3.80;99.90
18189;DHT22;9219;50.396;8.546;2022-12-18T06:02:51;-3.80;99.90
18189;DHT22;9219;50.396;8.546;2022-12-18T06:05:19;-3.80;99.90
18189;DHT22;9219;50.396;8.546;2022-12-18T06:07:48;-3.70;99.90
18189;DHT22;9219;50.396;8.546;2022-12-18T06:10:15;-3.80;99.90
18189;DHT22;9219;50.396;8.546;2022-12-18T06:12:43;-3.70;99.90
18189;DHT22;9219;50.396;8.546;2022-12-18T06:18:27;-3.80;99.90
18189;DHT22;9219;50.396;8.546;2022-12-18T06:20:55;-3.80;99.90
18189;DHT22;9219;50.396;8.546;2022-12-18T06:23:23;-3.80;99.90
18189;DHT22;9219;50.396;8.546;2022-12-18T06:25:50;-3.80;99.90
18189;DHT22;9219;50.396;8.546;2022-12-18T06:28:19;-4.00;99.90
18189;DHT22;9219;50.396;8.546;2022-12-18T06:30:47;-3.90;99.90
18189;DHT22;9219;50.396;8.546;2022-12-18T06:33:18;-4.00;99.90
18189;DHT22;9219;50.396;8.546;2022-12-18T06:38:33;-4.20;99.90
18189;DHT22;9219;50.396;8.546;2022-12-18T06:41:06;-4.10;99.90
18189;DHT22;9219;50.396;8.546;2022-12-18T06:43:34;-4.20;99.90
18189;DHT22;9219;50.396;8.546;2022-12-18T06:46:02;-4.20;99.90
18189;DHT22;9219;50.396;8.546;2022-12-18T06:48:31;-4.30;99.90
18189;DHT22;9219;50.396;8.546;2022-12-18T06:50:59;-4.30;99.90
18189;DHT22;9219;50.396;8.546;2022-12-18T06:53:29;-4.20;99.90
18189;DHT22;9219;50.396;8.546;2022-12-18T07:01:05;-4.20;99.90
18189;DHT22;9219;50.396;8.546;2022-12-18T07:03:42;-4.30;99.90
18189;DHT22;9219;50.396;8.546;2022-12-18T07:06:15;-4.40;99.90
18189;DHT22;9219;50.396;8.546;2022-12-18T07:08:44;-4.40;99.90
18189;DHT22;9219;50.396;8.546;2022-12-18T07:11:13;-4.40;99.90
18189;DHT22;9219;50.396;8.546;2022-12-18T07:13:40;-4.30;99.90
18189;DHT22;9219;50.396;8.546;2022-12-18T07:31:43;-4.30;99.90
18189;DHT22;9219;50.396;8.546;2022-12-18T07:34:13;-4.10;99.90
18189;DHT22;9219;50.396;8.546;2022-12-18T07:36:41;-4.00;99.90
18189;DHT22;9219;50.396;8.546;2022-12-18T07:39:11;-3.90;99.90
18189;DHT22;9219;50.396;8.546;2022-12-18T07:41:39;-4.00;99.90
18189;DHT22;9219;50.396;8.546;2022-12-18T07:44:13;-4.00;99.90
18189;DHT22;9219;50.396;8.546;2022-12-18T07:46:47;-4.10;99.90
18189;DHT22;9219;50.396;8.546;2022-12-18T07:53:54;-4.00;99.90
18189;DHT22;9219;50.396;8.546;2022-12-18T07:56:22;-4.10;99.90
18189;DHT22;9219;50.396;8.546;2022-12-18T07:58:56;-4.10;99.90
18189;DHT22;9219;50.396;8.546;2022-12-18T08:01:23;-4.10;99.90
18189;DHT22;9219;50.396;8.546;2022-12-18T08:03:51;-4.10;99.90
18189;DHT22;9219;50.396;8.546;2022-12-18T08:06:19;-4.00;99.90
18189;DHT22;9219;50.396;8.546;2022-12-18T08:08:51;-4.00;99.90
18189;DHT22;9219;50.396;8.546;2022-12-18T08:14:23;-3.90;99.90
18189;DHT22;9219;50.396;8.546;2022-12-18T08:16:53;-3.90;99.90
18189;DHT22;9219;50.396;8.546;2022-12-18T08:19:20;-3.80;99.90
18189;DHT22;9219;50.396;8.546;2022-12-18T08:21:48;-3.80;99.90
18189;DHT22;9219;50.396;8.546;2022-12-18T08:24:17;-3.80;99.90
18189;DHT22;9219;50.396;8.546;2022-12-18T08:26:44;-3.80;99.90
18189;DHT22;9219;50.396;8.546;2022-12-18T08:29:34;-3.80;99.90
18189;DHT22;9219;50.396;8.546;2022-12-18T08:36:09;-3.60;99.90
18189;DHT22;9219;50.396;8.546;2022-12-18T08:38:37;-3.50;99.90
18189;DHT22;9219;50.396;8.546;2022-12-18T08:41:06;-3.50;99.90
18189;DHT22;9219;50.396;8.546;2022-12-18T08:43:34;-3.50;99.90
18189;DHT22;9219;50.396;8.546;2022-12-18T08:46:20;-3.50;99.90
18189;DHT22;9219;50.396;8.546;2022-12-18T08:48:49;-3.40;99.90
18189;DHT22;9219;50.396;8.546;2022-12-18T08:51:18;-3.40;99.90
18189;DHT22;9219;50.396;8.546;2022-12-18T08:56:47;-3.50;99.90
18189;DHT22;9219;50.396;8.546;2022-12-18T08:59:20;-3.50;99.90
18189;DHT22;9219;50.396;8.546;2022-12-18T09:01:53;-3.50;99.90
18189;DHT22;9219;50.396;8.546;2022-12-18T09:04:25;-3.40;99.90
18189;DHT22;9219;50.396;8.546;2022-12-18T09:07:07;-3.40;99.90
18189;DHT22;9219;50.396;8.546;2022-12-18T09:10:06;-3.30;99.90
18189;DHT22;9219;50.396;8.546;2022-12-18T09:12:54;-3.30;99.90
18189;DHT22;9219;50.396;8.546;2022-12-18T09:15:31;-3.10;99.90
18189;DHT22;9219;50.396;8.546;2022-12-18T09:18:21;-3.10;99.90
18189;DHT22;9219;50.396;8.546;2022-12-18T09:20:51;-3.00;99.90
18189;DHT22;9219;50.396;8.546;2022-12-18T09:39:29;-2.80;99.90
18189;DHT22;9219;50.396;8.546;2022-12-18T09:41:58;-2.60;99.90
18189;DHT22;9219;50.396;8.546;2022-12-18T09:44:28;-2.50;99.90
18189;DHT22;9219;50.396;8.546;2022-12-18T09:47:09;-2.40;99.90
18189;DHT22;9219;50.396;8.546;2022-12-18T09:49:42;-2.40;99.90
18189;DHT22;9219;50.396;8.546;2022-12-18T09:52:23;-2.30;99.90
18189;DHT22;9219;50.396;8.546;2022-12-18T09:54:56;-2.40;99.90
18189;DHT22;9219;50.396;8.546;2022-12-18T10:02:26;-2.40;99.90
18189;DHT22;9219;50.396;8.546;2022-12-18T10:05:04;-2.50;99.90
18189;DHT22;9219;50.396;8.546;2022-12-18T10:07:47;-2.60;99.90
18189;DHT22;9219;50.396;8.546;2022-12-18T10:10:30;-2.60;99.90
18189;DHT22;9219;50.396;8.546;2022-12-18T10:13:13;-2.80;99.90
18189;DHT22;9219;50.396;8.546;2022-12-18T10:15:54;-2.80;99.90
18189;DHT22;9219;50.396;8.546;2022-12-18T10:18:39;-2.80;99.90
18189;DHT22;9219;50.396;8.546;2022-12-18T10:21:20;-2.80;99.90
18189;DHT22;9219;50.396;8.546;2022-12-18T10:28:57;-2.60;99.90
18189;DHT22;9219;50.396;8.546;2022-12-18T10:31:32;-2.80;99.90
18189;DHT22;9219;50.396;8.546;2022-12-18T10:34:01;-2.90;99.90
18189;DHT22;9219;50.396;8.546;2022-12-18T10:36:30;-2.90;99.90
18189;DHT22;9219;50.396;8.546;2022-12-18T10:39:14;-3.00;99.90
18189;DHT22;9219;50.396;8.546;2022-12-18T10:41:42;-3.10;99.90
18189;DHT22;9219;50.396;8.546;2022-12-18T10:44:17;-3.20;99.90
18189;DHT22;9219;50.396;8.546;2022-12-18T10:46:49;-3.30;99.90
18189;DHT22;9219;50.396;8.546;2022-12-18T10:56:45;-3.40;99.90
18189;DHT22;9219;50.396;8.546;2022-12-18T10:59:14;-3.50;99.90
18189;DHT22;9219;50.396;8.546;2022-12-18T11:01:50;-3.50;99.90
18189;DHT22;9219;50.396;8.546;2022-12-18T11:04:23;-3.50;99.90
18189;DHT22;9219;50.396;8.546;2022-12-18T11:06:57;-3.60;99.90
18189;DHT22;9219;50.396;8.546;2022-12-18T11:09:29;-3.50;99.90
18189;DHT22;9219;50.396;8.546;2022-12-18T11:12:15;-3.50;99.90
18189;DHT22;9219;50.396;8.546;2022-12-18T11:19:55;-3.30;99.90
18189;DHT22;9219;50.396;8.546;2022-12-18T11:22:25;-3.60;99.90
18189;DHT22;9219;50.396;8.546;2022-12-18T11:24:56;-3.50;99.90
18189;DHT22;9219;50.396;8.546;2022-12-18T11:27:48;-3.80;99.90
18189;DHT22;9219;50.396;8.546;2022-12-18T11:30:22;-3.90;99.90
18189;DHT22;9219;50.396;8.546;2022-12-18T11:32:53;-4.10;99.90
18189;DHT22;9219;50.396;8.546;2022-12-18T11:35:38;-4.20;99.90
18189;DHT22;9219;50.396;8.546;2022-12-18T11:43:23;-4.10;99.90
18189;DHT22;9219;50.396;8.546;2022-12-18T11:45:55;-4.40;99.90
18189;DHT22;9219;50.396;8.546;2022-12-18T11:48:36;-4.40;99.90
18189;DHT22;9219;50.396;8.546;2022-12-18T11:51:17;-4.60;99.90
18189;DHT22;9219;50.396;8.546;2022-12-18T11:53:55;-4.60;99.90
18189;DHT22;9219;50.396;8.546;2022-12-18T11:56:33;-4.80;99.90
18189;DHT22;9219;50.396;8.546;2022-12-18T11:59:17;-4.80;99.90
18189;DHT22;9219;50.396;8.546;2022-12-18T12:07:29;-5.20;99.90
18189;DHT22;9219;50.396;8.546;2022-12-18T12:10:09;-5.20;99.90
18189;DHT22;9219;50.396;8.546;2022-12-18T12:12:54;-5.20;99.90
18189;DHT22;9219;50.396;8.546;2022-12-18T12:15:34;-5.20;99.90
18189;DHT22;9219;50.396;8.546;2022-12-18T12:18:29;-5.10;99.90
18189;DHT22;9219;50.396;8.546;2022-12-18T12:21:06;-5.10;99.90
18189;DHT22;9219;50.396;8.546;2022-12-18T12:23:43;-5.20;99.90
18189;DHT22;9219;50.396;8.546;2022-12-18T12:26:19;-5.20;99.90
18189;DHT22;9219;50.396;8.546;2022-12-18T12:34:18;-5.30;99.90
18189;DHT22;9219;50.396;8.546;2022-12-18T12:37:10;-5.40;99.90
18189;DHT22;9219;50.396;8.546;2022-12-18T12:39:46;-5.40;99.90
18189;DHT22;9219;50.396;8.546;2022-12-18T12:43:12;-5.50;99.90
18189;DHT22;9219;50.396;8.546;2022-12-18T12:45:51;-5.70;99.90
18189;DHT22;9219;50.396;8.546;2022-12-18T12:48:36;-5.90;99.90
18189;DHT22;9219;50.396;8.546;2022-12-18T12:51:22;-5.90;99.90
18189;DHT22;9219;50.396;8.546;2022-12-18T12:54:00;-5.90;99.90
18189;DHT22;9219;50.396;8.546;2022-12-18T12:59:47;-5.90;99.90
18189;DHT22;9219;50.396;8.546;2022-12-18T13:02:23;-5.70;99.90
18189;DHT22;9219;50.396;8.546;2022-12-18T13:05:01;-5.60;99.90
18189;DHT22;9219;50.396;8.546;2022-12-18T13:07:35;-5.50;99.90
18189;DHT22;9219;50.396;8.546;2022-12-18T13:10:23;-5.40;99.90
18189;DHT22;9219;50.396;8.546;2022-12-18T13:12:57;-5.30;99.90
18189;DHT22;9219;50.396;8.546;2022-12-18T13:18:16;-5.40;99.90
18189;DHT22;9219;50.396;8.546;2022-12-18T13:25:58;-5.40;99.90
18189;DHT22;9219;50.396;8.546;2022-12-18T13:28:52;-5.60;99.90
18189;DHT22;9219;50.396;8.546;2022-12-18T13:34:46;-5.70;99.90
18189;DHT22;9219;50.396;8.546;2022-12-18T13:37:43;-5.90;99.90
18189;DHT22;9219;50.396;8.546;2022-12-18T13:43:39;-5.90;99.90
18189;DHT22;9219;50.396;8.546;2022-12-18T13:51:26;-5.80;99.90
18189;DHT22;9219;50.396;8.546;2022-12-18T13:54:00;-5.80;99.90
18189;DHT22;9219;50.396;8.546;2022-12-18T13:56:34;-5.90;99.90
18189;DHT22;9219;50.396;8.546;2022-12-18T13:59:19;-5.80;99.90
18189;DHT22;9219;50.396;8.546;2022-12-18T14:01:55;-5.60;99.90
18189;DHT22;9219;50.396;8.546;2022-12-18T14:04:32;-5.50;99.90
18189;DHT22;9219;50.396;8.546;2022-12-18T14:07:10;-5.40;99.90
18189;DHT22;9219;50.396;8.546;2022-12-18T14:09:46;-5.40;99.90
18189;DHT22;9219;50.396;8.546;2022-12-18T14:17:42;-5.20;99.90
18189;DHT22;9219;50.396;8.546;2022-12-18T14:20:18;-5.40;99.90
18189;DHT22;9219;50.396;8.546;2022-12-18T14:22:49;-5.30;99.90
18189;DHT22;9219;50.396;8.546;2022-12-18T14:25:24;-5.10;99.90
18189;DHT22;9219;50.396;8.546;2022-12-18T14:28:04;-5.20;99.90
18189;DHT22;9219;50.396;8.546;2022-12-18T14:30:40;-5.00;99.90
18189;DHT22;9219;50.396;8.546;2022-12-18T14:33:18;-4.80;99.90
18189;DHT22;9219;50.396;8.546;2022-12-18T14:41:29;-5.20;99.90
18189;DHT22;9219;50.396;8.546;2022-12-18T14:44:10;-5.80;99.90
18189;DHT22;9219;50.396;8.546;2022-12-18T14:46:43;-5.80;99.90
18189;DHT22;9219;50.396;8.546;2022-12-18T14:49:21;-5.60;99.90
18189;DHT22;9219;50.396;8.546;2022-12-18T14:51:54;-5.50;99.90
18189;DHT22;9219;50.396;8.546;2022-12-18T14:54:27;-5.50;99.90
18189;DHT22;9219;50.396;8.546;2022-12-18T14:57:02;-5.60;99.90
18189;DHT22;9219;50.396;8.546;2022-12-18T15:05:16;-5.60;99.90
18189;DHT22;9219;50.396;8.546;2022-12-18T15:07:53;-5.80;99.90
18189;DHT22;9219;50.396;8.546;2022-12-18T15:10:29;-5.60;99.90
18189;DHT22;9219;50.396;8.546;2022-12-18T15:13:22;-5.50;99.90
18189;DHT22;9219;50.396;8.546;2022-12-18T15:16:04;-5.40;99.90
18189;DHT22;9219;50.396;8.546;2022-12-18T15:18:47;-5.50;99.90
18189;DHT22;9219;50.396;8.546;2022-12-18T15:24:22;-5.50;99.90
18189;DHT22;9219;50.396;8.546;2022-12-18T15:27:21;-5.50;99.90
18189;DHT22;9219;50.396;8.546;2022-12-18T15:30:20;-5.40;99.90
18189;DHT22;9219;50.396;8.546;2022-12-18T15:33:24;-5.50;99.90
18189;DHT22;9219;50.396;8.546;2022-12-18T15:35:59;-5.50;99.90
18189;DHT22;9219;50.396;8.546;2022-12-18T15:38:33;-5.50;99.90
18189;DHT22;9219;50.396;8.546;2022-12-18T15:41:21;-5.50;99.90
18189;DHT22;9219;50.396;8.546;2022-12-18T15:47:41;-5.60;99.90
18189;DHT22;9219;50.396;8.546;2022-12-18T15:50:15;-5.50;99.90
18189;DHT22;9219;50.396;8.546;2022-12-18T15:52:51;-5.60;99.90
18189;DHT22;9219;50.396;8.546;2022-12-18T15:55:26;-5.60;99.90
18189;DHT22;9219;50.396;8.546;2022-12-18T15:58:17;-5.60;99.90
18189;DHT22;9219;50.396;8.546;2022-12-18T16:00:48;-5.60;99.90
18189;DHT22;9219;50.396;8.546;2022-12-18T16:03:22;-5.60;99.90
18189;DHT22;9219;50.396;8.546;2022-12-18T16:05:54;-5.60;99.90
18189;DHT22;9219;50.396;8.546;2022-12-18T16:13:39;-5.40;99.90
18189;DHT22;9219;50.396;8.546;2022-12-18T16:16:18;-5.20;99.90
18189;DHT22;9219;50.396;8.546;2022-12-18T16:19:03;-5.10;99.90
18189;DHT22;9219;50.396;8.546;2022-12-18T16:21:39;-4.90;99.90
18189;DHT22;9219;50.396;8.546;2022-12-18T16:24:59;-5.10;99.90
18189;DHT22;9219;50.396;8.546;2022-12-18T16:28:06;-5.30;99.90
18189;DHT22;9219;50.396;8.546;2022-12-18T16:30:56;-5.30;99.90
18189;DHT22;9219;50.396;8.546;2022-12-18T16:33:32;-5.10;99.90
18189;DHT22;9219;50.396;8.546;2022-12-18T16:40:54;-4.80;99.90
18189;DHT22;9219;50.396;8.546;2022-12-18T16:43:43;-5.00;99.90
18189;DHT22;9219;50.396;8.546;2022-12-18T16:46:26;-5.10;99.90
18189;DHT22;9219;50.396;8.546;2022-12-18T16:49:04;-5.20;99.90
18189;DHT22;9219;50.396;8.546;2022-12-18T16:51:45;-5.30;99.90
18189;DHT22;9219;50.396;8.546;2022-12-18T16:54:23;-5.20;99.90
18189;DHT22;9219;50.396;8.546;2022-12-18T16:57:00;-5.30;99.90
18189;DHT22;9219;50.396;8.546;2022-12-18T17:04:44;-4.90;99.90
18189;DHT22;9219;50.396;8.546;2022-12-18T17:07:22;-4.50;99.90
18189;DHT22;9219;50.396;8.546;2022-12-18T17:09:59;-4.40;99.90
18189;DHT22;9219;50.396;8.546;2022-12-18T17:12:33;-4.30;99.90
18189;DHT22;9219;50.396;8.546;2022-12-18T17:15:10;-4.40;99.90
18189;DHT22;9219;50.396;8.546;2022-12-18T17:17:47;-4.60;99.90
18189;DHT22;9219;50.396;8.546;2022-12-18T17:20:29;-4.70;99.90
18189;DHT22;9219;50.396;8.546;2022-12-18T17:28:19;-4.70;99.90
18189;DHT22;9219;50.396;8.546;2022-12-18T17:30:55;-4.70;99.90
18189;DHT22;9219;50.396;8.546;2022-12-18T17:33:30;-4.60;99.90
18189;DHT22;9219;50.396;8.546;2022-12-18T17:36:04;-4.60;99.90
18189;DHT22;9219;50.396;8.546;2022-12-18T17:38:48;-4.50;99.90
18189;DHT22;9219;50.396;8.546;2022-12-18T17:41:26;-4.50;99.90
18189;DHT22;9219;50.396;8.546;2022-12-18T17:44:06;-4.60;99.90
18189;DHT22;9219;50.396;8.546;2022-12-18T17:46:45;-4.70;99.90
18189;DHT22;9219;50.396;8.546;2022-12-18T17:54:43;-4.50;99.90
18189;DHT22;9219;50.396;8.546;2022-12-18T17:57:33;-4.40;99.90
18189;DHT22;9219;50.396;8.546;2022-12-18T18:00:09;-4.40;99.90
18189;DHT22;9219;50.396;8.546;2022-12-18T18:02:45;-4.20;99.90
18189;DHT22;9219;50.396;8.546;2022-12-18T18:05:19;-4.10;99.90
18189;DHT22;9219;50.396;8.546;2022-12-18T18:07:54;-4.10;99.90
18189;DHT22;9219;50.396;8.546;2022-12-18T18:10:31;-4.00;99.90
18189;DHT22;9219;50.396;8.546;2022-12-18T18:13:05;-4.00;99.90
18189;DHT22;9219;50.396;8.546;2022-12-18T18:21:06;-4.10;99.90
18189;DHT22;9219;50.396;8.546;2022-12-18T18:23:45;-4.00;99.90
18189;DHT22;9219;50.396;8.546;2022-12-18T18:26:23;-4.10;99.90
18189;DHT22;9219;50.396;8.546;2022-12-18T18:29:04;-4.00;99.90
18189;DHT22;9219;50.396;8.546;2022-12-18T18:31:45;-4.00;99.90
18189;DHT22;9219;50.396;8.546;2022-12-18T18:34:21;-4.00;99.90
18189;DHT22;9219;50.396;8.546;2022-12-18T18:37:02;-4.00;99.90
18189;DHT22;9219;50.396;8.546;2022-12-18T18:44:45;-4.10;99.90
18189;DHT22;9219;50.396;8.546;2022-12-18T18:47:16;-4.10;99.90
18189;DHT22;9219;50.396;8.546;2022-12-18T18:49:45;-4.10;99.90
18189;DHT22;9219;50.396;8.546;2022-12-18T18:52:15;-4.00;99.90
18189;DHT22;9219;50.396;8.546;2022-12-18T18:54:50;-3.90;99.90
18189;DHT22;9219;50.396;8.546;2022-12-18T18:57:39;-3.90;99.90
18189;DHT22;9219;50.396;8.546;2022-12-18T19:00:11;-3.90;99.90
18189;DHT22;9219;50.396;8.546;2022-12-18T19:02:46;-4.00;99.90
18189;DHT22;9219;50.396;8.546;2022-12-18T19:10:25;-3.90;99.90
18189;DHT22;9219;50.396;8.546;2022-12-18T19:12:54;-3.90;99.90
18189;DHT22;9219;50.396;8.546;2022-12-18T19:15:41;-3.90;99.90
18189;DHT22;9219;50.396;8.546;2022-12-18T19:18:12;-3.90;99.90
18189;DHT22;9219;50.396;8.546;2022-12-18T19:20:55;-3.80;99.90
18189;DHT22;9219;50.396;8.546;2022-12-18T19:23:26;-3.80;99.90
18189;DHT22;9219;50.396;8.546;2022-12-18T19:26:04;-3.70;99.90
18189;DHT22;9219;50.396;8.546;2022-12-18T19:28:52;-3.80;99.90
18189;DHT22;9219;50.396;8.546;2022-12-18T19:36:30;-4.00;99.90
18189;DHT22;9219;50.396;8.546;2022-12-18T19:39:01;-4.00;99.90
18189;DHT22;9219;50.396;8.546;2022-12-18T19:41:29;-4.00;99.90
18189;DHT22;9219;50.396;8.546;2022-12-18T19:44:00;-3.90;99.90
18189;DHT22;9219;50.396;8.546;2022-12-18T19:46:35;-3.90;99.90
18189;DHT22;9219;50.396;8.546;2022-12-18T19:49:10;-3.70;99.90
18189;DHT22;9219;50.396;8.546;2022-12-18T19:51:45;-3.70;99.90
18189;DHT22;9219;50.396;8.546;2022-12-18T19:54:16;-3.80;99.90
18189;DHT22;9219;50.396;8.546;2022-12-18T20:01:59;-3.90;99.90
18189;DHT22;9219;50.396;8.546;2022-12-18T20:04:30;-3.80;99.90
18189;DHT22;9219;50.396;8.546;2022-12-18T20:06:59;-3.80;99.90
18189;DHT22;9219;50.396;8.546;2022-12-18T20:09:30;-3.80;99.90
18189;DHT22;9219;50.396;8.546;2022-12-18T20:12:04;-3.80;99.90
18189;DHT22;9219;50.396;8.546;2022-12-18T20:14:35;-3.80;99.90
18189;DHT22;9219;50.396;8.546;2022-12-18T20:17:07;-3.90;99.90
18189;DHT22;9219;50.396;8.546;2022-12-18T20:19:41;-3.90;99.90
18189;DHT22;9219;50.396;8.546;2022-12-18T20:27:20;-3.90;99.90
18189;DHT22;9219;50.396;8.546;2022-12-18T20:29:50;-3.70;99.90
18189;DHT22;9219;50.396;8.546;2022-12-18T20:32:23;-3.70;99.90
18189;DHT22;9219;50.396;8.546;2022-12-18T20:34:52;-3.80;99.90
18189;DHT22;9219;50.396;8.546;2022-12-18T20:37:23;-3.80;99.90
18189;DHT22;9219;50.396;8.546;2022-12-18T20:39:58;-3.80;99.90
18189;DHT22;9219;50.396;8.546;2022-12-18T20:42:30;-3.90;99.90
18189;DHT22;9219;50.396;8.546;2022-12-18T20:45:00;-3.90;99.90
18189;DHT22;9219;50.396;8.546;2022-12-18T20:52:37;-3.70;99.90
18189;DHT22;9219;50.396;8.546;2022-12-18T20:55:23;-3.70;99.90
18189;DHT22;9219;50.396;8.546;2022-12-18T20:57:54;-3.80;99.90
18189;DHT22;9219;50.396;8.546;2022-12-18T21:00:23;-3.80;99.90
18189;DHT22;9219;50.396;8.546;2022-12-18T21:02:51;-3.70;99.90
18189;DHT22;9219;50.396;8.546;2022-12-18T21:05:21;-3.70;99.90
18189;DHT22;9219;50.396;8.546;2022-12-18T21:07:52;-3.70;99.90
18189;DHT22;9219;50.396;8.546;2022-12-18T21:10:25;-3.80;99.90
18189;DHT22;9219;50.396;8.546;2022-12-18T21:18:04;-3.80;99.90
18189;DHT22;9219;50.396;8.546;2022-12-18T21:20:33;-3.80;99.90
18189;DHT22;9219;50.396;8.546;2022-12-18T21:23:03;-3.80;99.90
18189;DHT22;9219;50.396;8.546;2022-12-18T21:25:43;-3.80;99.90